Time;durP1;ratioP1;P1;durP2;ratioP2;P2;SDS_P1;SDS_P2;PMS_P1;PMS_P2;Temp;Humidity;BMP_temperature;BMP_pressure;BME280_temperature;BME280_humidity;BME280_pressure;Samples;Min_cycle;Max_cycle;Signal;HPM_P1;HPM_P2
2022/06/20 00:00:38;;;;;;;6.67;5.20;;;18.10;99.90;;;;;;5064544;28;20418;-80
2022/06/20 00:03:06;;;;;;;5.57;4.47;;;18.10;99.90;;;;;;5065203;28;20433;-80
2022/06/20 00:05:36;;;;;;;10.10;5.13;;;18.10;99.90;;;;;;5063493;28;20762;-79
2022/06/20 00:08:02;;;;;;;4.90;4.17;;;18.10;99.90;;;;;;5063105;28;21032;-80
2022/06/20 00:10:29;;;;;;;6.47;4.60;;;18.10;99.90;;;;;;5063860;28;20442;-80
2022/06/20 00:12:55;;;;;;;7.17;4.77;;;18.10;99.90;;;;;;5062873;28;20509;-80
2022/06/20 00:15:27;;;;;;;7.07;4.60;;;18.10;99.90;;;;;;5062254;28;20486;-80
2022/06/20 00:17:54;;;;;;;6.40;4.37;;;18.00;99.90;;;;;;5063029;28;20492;-79
2022/06/20 00:20:21;;;;;;;5.97;4.67;;;18.10;99.90;;;;;;5061946;28;20963;-80
2022/06/20 00:22:47;;;;;;;5.93;4.70;;;18.10;99.90;;;;;;5063083;28;20458;-80
2022/06/20 00:25:16;;;;;;;5.77;4.93;;;18.00;99.90;;;;;;5062510;28;20533;-79
2022/06/20 00:27:42;;;;;;;7.27;5.07;;;18.00;99.90;;;;;;5061318;28;20450;-79
2022/06/20 00:30:10;;;;;;;8.70;5.40;;;18.00;99.90;;;;;;5062733;28;20415;-79
2022/06/20 00:32:36;;;;;;;10.13;6.70;;;17.90;99.90;;;;;;5059875;28;20430;-79
2022/06/20 00:35:02;;;;;;;7.07;4.83;;;17.90;99.90;;;;;;5061259;28;20470;-79
2022/06/20 00:37:28;;;;;;;6.80;5.20;;;17.90;99.90;;;;;;5059165;28;20204;-79
2022/06/20 00:39:54;;;;;;;7.07;5.27;;;17.90;99.90;;;;;;5059542;28;20422;-79
2022/06/20 00:42:20;;;;;;;6.97;4.73;;;17.90;99.90;;;;;;5059206;28;20180;-80
2022/06/20 00:44:51;;;;;;;9.33;4.90;;;17.90;99.90;;;;;;5059596;28;21049;-80
2022/06/20 00:47:21;;;;;;;6.03;4.40;;;17.90;99.90;;;;;;5059860;28;20203;-79
2022/06/20 00:49:56;;;;;;;9.07;4.50;;;17.90;99.90;;;;;;5059632;28;20422;-79
2022/06/20 00:52:33;;;;;;;7.63;4.30;;;17.90;99.90;;;;;;5058897;28;20422;-80
2022/06/20 00:55:05;;;;;;;7.10;5.00;;;17.90;99.90;;;;;;5059231;28;20869;-80
2022/06/20 00:57:36;;;;;;;6.50;4.20;;;17.90;99.90;;;;;;5061584;28;20442;-79
2022/06/20 01:00:10;;;;;;;6.23;4.47;;;17.80;99.90;;;;;;5061604;28;20426;-80
2022/06/20 01:02:41;;;;;;;9.33;5.47;;;17.60;99.90;;;;;;5061653;28;20461;-79
2022/06/20 01:05:18;;;;;;;10.17;5.23;;;17.50;99.90;;;;;;5061799;28;20422;-79
2022/06/20 01:07:53;;;;;;;7.73;6.10;;;17.40;99.90;;;;;;5062088;28;20442;-80
2022/06/20 01:10:20;;;;;;;7.77;4.93;;;17.40;99.90;;;;;;5060375;28;20417;-79
2022/06/20 01:13:00;;;;;;;9.33;5.77;;;17.30;99.90;;;;;;5059310;28;20516;-79
2022/06/20 01:15:36;;;;;;;7.07;5.37;;;17.20;99.90;;;;;;5058355;28;20428;-80
2022/06/20 01:18:03;;;;;;;14.40;7.07;;;16.90;99.90;;;;;;5057130;28;20460;-79
2022/06/20 01:20:36;;;;;;;10.10;7.90;;;16.80;99.90;;;;;;5058544;28;20445;-79
2022/06/20 01:23:30;;;;;;;10.40;6.80;;;16.60;99.90;;;;;;5059149;28;20937;-78
2022/06/20 01:26:05;;;;;;;12.30;7.30;;;16.50;99.90;;;;;;5061968;28;20983;-79
2022/06/20 01:28:38;;;;;;;10.07;7.40;;;16.40;99.90;;;;;;5061509;28;20426;-78
2022/06/20 01:31:05;;;;;;;10.30;7.30;;;16.10;99.90;;;;;;5061890;28;20426;-79
2022/06/20 01:33:31;;;;;;;9.90;7.10;;;16.00;99.90;;;;;;5061544;28;20457;-78
2022/06/20 01:38:44;;;;;;;11.33;8.43;;;15.90;99.90;;;;;;5062548;28;20714;-79
2022/06/20 01:43:59;;;;;;;10.33;6.90;;;15.80;99.90;;;;;;5062657;28;20429;-79
2022/06/20 01:46:32;;;;;;;16.67;8.10;;;15.80;99.90;;;;;;5061097;28;20498;-78
2022/06/20 01:49:03;;;;;;;11.83;8.23;;;15.80;99.90;;;;;;5060759;28;20509;-79
2022/06/20 01:51:41;;;;;;;13.40;7.87;;;15.80;99.90;;;;;;5062119;28;20426;-79
2022/06/20 01:54:09;;;;;;;12.33;7.53;;;15.90;99.90;;;;;;5061816;28;20828;-79
2022/06/20 01:56:36;;;;;;;11.70;8.57;;;16.00;99.90;;;;;;5062862;28;20470;-79
2022/06/20 01:59:10;;;;;;;12.27;7.60;;;16.00;99.90;;;;;;5063931;28;20961;-78
2022/06/20 02:01:37;;;;;;;8.43;7.20;;;16.00;99.90;;;;;;5064905;28;20422;-79
2022/06/20 02:04:12;;;;;;;11.40;7.40;;;16.10;99.90;;;;;;5064908;28;20422;-79
2022/06/20 02:06:38;;;;;;;8.37;6.27;;;16.10;99.90;;;;;;5063074;28;20437;-79
2022/06/20 02:09:06;;;;;;;10.03;7.50;;;16.00;99.90;;;;;;5063602;28;20429;-79
2022/06/20 02:11:34;;;;;;;14.07;8.00;;;16.00;99.90;;;;;;5063697;28;20481;-79
2022/06/20 02:14:42;;;;;;;11.23;7.20;;;16.00;99.90;;;;;;5063323;28;20457;-79
2022/06/20 02:17:31;;;;;;;10.67;7.63;;;15.90;99.90;;;;;;5063322;28;20522;-80
2022/06/20 02:20:03;;;;;;;11.20;7.50;;;15.90;99.90;;;;;;5062578;28;20410;-81
2022/06/20 02:22:31;;;;;;;10.97;7.00;;;15.80;99.90;;;;;;5056004;28;20518;-79
2022/06/20 02:25:07;;;;;;;12.10;6.93;;;15.80;99.90;;;;;;5056310;28;20437;-79
2022/06/20 02:27:39;;;;;;;11.07;8.13;;;15.70;99.90;;;;;;5057184;28;20537;-80
2022/06/20 02:30:08;;;;;;;14.17;8.17;;;15.70;99.90;;;;;;5057619;28;20422;-79
2022/06/20 02:32:41;;;;;;;12.43;8.47;;;15.70;99.90;;;;;;5056674;28;20425;-81
2022/06/20 02:35:10;;;;;;;10.47;7.87;;;15.70;99.90;;;;;;5058751;28;20458;-81
2022/06/20 02:37:37;;;;;;;12.93;8.93;;;15.60;99.90;;;;;;5064776;28;20438;-81
2022/06/20 02:40:07;;;;;;;13.53;9.50;;;15.60;99.90;;;;;;5063946;28;20489;-81
2022/06/20 02:42:50;;;;;;;14.40;10.30;;;15.60;99.90;;;;;;5062384;28;20418;-81
2022/06/20 02:45:18;;;;;;;13.10;9.47;;;15.60;99.90;;;;;;5062660;28;20783;-80
2022/06/20 02:47:50;;;;;;;17.57;10.23;;;15.60;99.90;;;;;;5062263;28;20441;-80
2022/06/20 02:50:20;;;;;;;14.13;8.50;;;15.60;99.90;;;;;;5061944;28;20501;-81
2022/06/20 02:53:04;;;;;;;13.80;8.10;;;15.50;99.90;;;;;;5065984;28;20933;-80
2022/06/20 02:55:32;;;;;;;13.13;8.53;;;15.50;99.90;;;;;;5064786;28;20434;-80
2022/06/20 02:58:03;;;;;;;11.33;8.37;;;15.40;99.90;;;;;;5065356;28;20487;-80
2022/06/20 03:00:53;;;;;;;11.40;8.50;;;15.20;99.90;;;;;;5066642;28;20945;-81
2022/06/20 03:03:31;;;;;;;17.37;9.47;;;15.00;99.90;;;;;;5065273;28;20768;-81
2022/06/20 03:05:57;;;;;;;12.80;8.90;;;15.10;99.90;;;;;;5064913;28;20414;-80
2022/06/20 03:08:24;;;;;;;14.10;9.17;;;15.10;99.90;;;;;;5064758;28;20422;-81
2022/06/20 03:10:53;;;;;;;13.17;8.70;;;15.00;99.90;;;;;;5063859;28;20410;-81
2022/06/20 03:13:21;;;;;;;13.70;7.43;;;15.00;99.90;;;;;;5061956;28;20434;-79
2022/06/20 03:15:49;;;;;;;10.80;7.47;;;15.00;99.90;;;;;;5061770;28;20790;-80
2022/06/20 03:18:17;;;;;;;10.13;6.80;;;14.90;99.90;;;;;;5061965;28;20416;-80
2022/06/20 03:20:44;;;;;;;12.37;6.77;;;14.90;99.90;;;;;;5062639;28;20425;-80
2022/06/20 03:23:31;;;;;;;11.30;7.10;;;15.00;99.90;;;;;;5062291;28;20418;-81
2022/06/20 03:25:59;;;;;;;10.40;6.40;;;14.90;99.90;;;;;;5061102;28;20485;-81
2022/06/20 03:28:25;;;;;;;9.50;6.70;;;14.90;99.90;;;;;;5062670;28;20567;-80
2022/06/20 03:30:52;;;;;;;10.57;6.77;;;15.00;99.90;;;;;;5061275;28;20410;-80
2022/06/20 03:33:21;;;;;;;12.70;6.90;;;15.10;99.90;;;;;;5060695;28;20419;-80
2022/06/20 03:35:55;;;;;;;10.53;6.87;;;15.20;99.90;;;;;;5060093;28;20576;-80
2022/06/20 03:38:22;;;;;;;10.07;6.73;;;15.10;99.90;;;;;;5061106;28;20418;-80
2022/06/20 03:40:49;;;;;;;9.40;6.57;;;15.00;99.90;;;;;;5059772;28;20422;-81
2022/06/20 03:43:19;;;;;;;10.50;6.30;;;14.90;99.90;;;;;;5059553;28;20444;-81
2022/06/20 03:45:58;;;;;;;10.50;6.80;;;14.90;99.90;;;;;;5059463;28;20928;-79
2022/06/20 03:48:33;;;;;;;8.77;6.83;;;14.90;99.90;;;;;;5058239;28;20444;-81
2022/06/20 03:51:29;;;;;;;12.30;6.60;;;15.00;99.90;;;;;;5058810;28;20495;-80
2022/06/20 03:54:12;;;;;;;9.80;6.10;;;15.10;99.90;;;;;;5055309;28;21059;-81
2022/06/20 03:56:52;;;;;;;11.43;6.60;;;15.10;99.90;;;;;;5057418;28;20545;-80
2022/06/20 03:59:23;;;;;;;10.17;7.13;;;15.10;99.90;;;;;;5058280;28;20486;-79
2022/06/20 04:02:13;;;;;;;8.17;6.00;;;15.20;99.90;;;;;;5057839;28;20418;-81
2022/06/20 04:04:47;;;;;;;10.57;7.50;;;15.20;99.90;;;;;;5058811;28;20434;-81
2022/06/20 04:07:23;;;;;;;12.60;7.77;;;15.20;99.90;;;;;;5057602;28;20446;-81
2022/06/20 04:13:22;;;;;;;11.37;7.70;;;15.30;99.90;;;;;;5057499;28;20428;-80
2022/06/20 04:16:04;;;;;;;11.60;6.07;;;15.20;99.90;;;;;;5059129;28;20422;-79
2022/06/20 04:19:17;;;;;;;11.47;7.97;;;15.20;99.90;;;;;;5059024;28;20425;-79
2022/06/20 04:22:15;;;;;;;10.67;7.97;;;15.20;99.90;;;;;;5023738;28;20423;-80
2022/06/20 04:24:56;;;;;;;11.53;8.47;;;15.10;99.90;;;;;;5058734;28;20479;-80
2022/06/20 04:27:36;;;;;;;16.93;9.80;;;15.10;99.90;;;;;;5058122;28;20453;-79
2022/06/20 04:30:24;;;;;;;15.17;9.97;;;15.10;99.90;;;;;;5057417;28;20436;-80
2022/06/20 04:33:23;;;;;;;19.37;12.03;;;15.00;99.90;;;;;;5060997;28;20433;-80
2022/06/20 04:36:11;;;;;;;13.83;10.70;;;15.10;99.90;;;;;;5062000;28;20448;-81
2022/06/20 04:39:06;;;;;;;18.17;12.40;;;15.00;99.90;;;;;;5062111;28;20410;-79
2022/06/20 04:41:42;;;;;;;21.57;11.40;;;15.00;99.90;;;;;;5059857;28;20489;-81
2022/06/20 04:44:33;;;;;;;15.90;10.10;;;15.00;99.90;;;;;;5062546;28;20418;-80
2022/06/20 04:47:15;;;;;;;16.50;12.50;;;14.90;99.90;;;;;;5059974;28;20426;-80
2022/06/20 04:49:41;;;;;;;16.87;11.90;;;14.90;99.90;;;;;;5062136;28;20410;-80
2022/06/20 04:52:14;;;;;;;17.57;10.97;;;14.90;99.90;;;;;;5061382;28;20794;-80
2022/06/20 04:54:40;;;;;;;9.87;6.13;;;14.80;99.90;;;;;;5061534;28;20500;-80
2022/06/20 04:57:08;;;;;;;18.37;11.03;;;14.80;99.90;;;;;;5060539;28;20439;-80
2022/06/20 04:59:34;;;;;;;15.00;10.67;;;14.90;99.90;;;;;;5062018;28;20644;-80
2022/06/20 05:02:05;;;;;;;18.07;11.60;;;14.80;99.90;;;;;;5060751;28;20449;-80
2022/06/20 05:04:43;;;;;;;18.17;10.80;;;14.80;99.90;;;;;;5061246;28;20190;-79
2022/06/20 05:07:22;;;;;;;15.83;10.60;;;14.80;99.90;;;;;;5060398;28;20445;-78
2022/06/20 05:10:16;;;;;;;14.30;9.27;;;14.90;99.90;;;;;;5061630;28;20409;-79
2022/06/20 05:12:57;;;;;;;17.27;9.80;;;14.80;99.90;;;;;;5061771;28;20784;-80
2022/06/20 05:15:38;;;;;;;14.80;9.37;;;14.90;99.90;;;;;;5060346;28;20449;-80
2022/06/20 05:18:16;;;;;;;17.87;9.33;;;15.00;99.90;;;;;;5062002;28;20438;-79
2022/06/20 05:20:43;;;;;;;18.07;9.40;;;14.90;99.90;;;;;;5066794;28;21005;-80
2022/06/20 05:23:25;;;;;;;13.53;8.40;;;14.90;99.90;;;;;;5066284;28;20426;-80
2022/06/20 05:25:52;;;;;;;11.70;7.50;;;14.90;99.90;;;;;;5065426;28;20430;-80
2022/06/20 05:28:21;;;;;;;17.97;10.70;;;15.00;99.90;;;;;;5055638;23;20509;-88
2022/06/20 05:30:47;;;;;;;15.37;8.77;;;15.00;99.90;;;;;;5033905;28;20477;-88
2022/06/20 05:33:34;;;;;;;15.33;8.13;;;15.10;99.90;;;;;;5033204;28;20416;-87
2022/06/20 05:36:11;;;;;;;13.53;8.50;;;15.10;99.90;;;;;;5049772;28;20851;-88
2022/06/20 05:38:46;;;;;;;15.60;8.50;;;15.10;99.90;;;;;;5034660;28;20431;-88
2022/06/20 05:41:15;;;;;;;12.80;6.97;;;15.10;99.90;;;;;;5033326;28;20406;-88
2022/06/20 05:43:42;;;;;;;11.90;7.13;;;15.00;99.90;;;;;;5032091;28;20422;-88
2022/06/20 05:46:34;;;;;;;11.23;7.00;;;15.00;99.90;;;;;;5033316;28;20460;-88
2022/06/20 05:49:09;;;;;;;12.33;7.50;;;15.00;99.90;;;;;;5023638;28;21009;-90
2022/06/20 05:51:38;;;;;;;15.43;8.67;;;15.00;99.90;;;;;;5033370;28;20426;-89
2022/06/20 05:54:42;;;;;;;11.10;7.37;;;14.90;99.90;;;;;;5033102;28;20993;-89
2022/06/20 05:57:20;;;;;;;13.27;6.80;;;14.90;99.90;;;;;;4937314;29;20979;-89
2022/06/20 05:59:52;;;;;;;12.23;7.70;;;14.90;99.90;;;;;;5023737;28;20419;-90
2022/06/20 06:02:29;;;;;;;12.67;6.57;;;14.90;99.90;;;;;;5033272;28;20423;-89
2022/06/20 06:05:07;;;;;;;12.10;7.77;;;14.80;99.90;;;;;;5032916;28;20447;-89
2022/06/20 06:07:41;;;;;;;9.93;6.87;;;14.90;99.90;;;;;;5032688;28;20978;-89
2022/06/20 06:10:16;;;;;;;12.10;7.10;;;14.90;99.90;;;;;;5034106;28;20395;-89
2022/06/20 06:12:48;;;;;;;11.80;7.40;;;14.90;99.90;;;;;;5032728;28;20415;-88
2022/06/20 06:16:46;;;;;;;14.17;7.53;;;14.90;99.90;;;;;;5033032;28;20795;-89
2022/06/20 06:18:36;;;;;;;12.17;7.90;;;14.90;99.90;;;;;;5033609;28;20965;-90
2022/06/20 06:21:02;;;;;;;10.37;7.70;;;14.90;99.90;;;;;;5032801;28;20454;-89
2022/06/20 06:23:29;;;;;;;13.33;9.40;;;15.00;99.90;;;;;;5032562;28;20455;-89
2022/06/20 06:25:54;;;;;;;16.43;9.80;;;14.90;99.90;;;;;;5033858;28;20438;-88
2022/06/20 06:28:24;;;;;;;13.27;10.23;;;15.00;99.90;;;;;;5032197;28;20455;-88
2022/06/20 06:31:06;;;;;;;13.70;8.57;;;15.10;99.90;;;;;;5033830;28;20222;-88
2022/06/20 06:33:41;;;;;;;14.07;9.70;;;15.10;99.90;;;;;;5032430;28;20493;-89
2022/06/20 06:36:17;;;;;;;13.00;8.67;;;15.10;99.90;;;;;;5032438;28;20457;-89
2022/06/20 06:38:57;;;;;;;16.80;9.30;;;15.10;99.90;;;;;;5032231;28;20474;-89
2022/06/20 06:41:29;;;;;;;20.83;9.37;;;15.10;99.90;;;;;;5032693;28;20418;-89
2022/06/20 06:43:56;;;;;;;10.97;9.00;;;15.20;99.90;;;;;;5032244;28;20465;-89
2022/06/20 06:46:27;;;;;;;13.47;9.47;;;15.20;99.90;;;;;;5032129;28;20874;-88
2022/06/20 06:49:11;;;;;;;15.23;8.83;;;15.30;99.90;;;;;;5032134;28;20450;-88
2022/06/20 06:51:55;;;;;;;13.63;8.37;;;15.30;99.90;;;;;;5032371;28;20415;-89
2022/06/20 06:54:28;;;;;;;9.30;6.57;;;15.40;99.90;;;;;;5031574;28;20459;-88
2022/06/20 06:57:02;;;;;;;8.80;5.00;;;15.30;99.90;;;;;;5031936;28;20415;-89
2022/06/20 06:59:43;;;;;;;6.30;5.00;;;15.30;99.90;;;;;;5031988;28;20524;-89
2022/06/20 07:02:23;;;;;;;7.30;4.50;;;15.30;99.90;;;;;;5032069;28;20407;-89
2022/06/20 07:05:06;;;;;;;6.97;3.20;;;15.40;99.90;;;;;;5032029;28;20450;-89
2022/06/20 07:07:46;;;;;;;6.50;4.07;;;15.40;99.90;;;;;;5031690;28;20415;-89
2022/06/20 07:10:23;;;;;;;9.73;3.70;;;15.40;99.90;;;;;;5031801;28;20411;-89
2022/06/20 07:12:53;;;;;;;9.57;4.10;;;15.20;99.90;;;;;;5031735;28;20407;-89
2022/06/20 07:15:24;;;;;;;10.50;3.40;;;15.30;99.90;;;;;;5031515;28;20823;-89
2022/06/20 07:17:54;;;;;;;7.37;3.93;;;15.30;99.90;;;;;;5031655;28;20434;-89
2022/06/20 07:20:26;;;;;;;7.73;3.20;;;15.30;99.90;;;;;;5031663;28;20502;-89
2022/06/20 07:22:52;;;;;;;6.40;2.77;;;15.30;99.90;;;;;;5031931;28;20780;-90
2022/06/20 07:25:25;;;;;;;3.90;2.97;;;15.30;99.90;;;;;;5031865;28;20423;-89
2022/06/20 07:28:03;;;;;;;8.37;3.27;;;15.40;99.90;;;;;;5028027;28;20459;-85
2022/06/20 07:30:39;;;;;;;8.13;3.00;;;15.40;99.90;;;;;;5011706;28;20848;-85
2022/06/20 07:33:38;;;;;;;7.17;3.33;;;15.40;99.90;;;;;;5003308;28;20466;-88
2022/06/20 07:36:08;;;;;;;6.90;2.63;;;15.40;99.90;;;;;;4997928;28;20565;-85
2022/06/20 07:38:59;;;;;;;9.90;3.70;;;15.50;99.90;;;;;;4994314;28;20936;-85
2022/06/20 07:42:16;;;;;;;13.43;3.60;;;15.40;99.90;;;;;;4997628;28;20915;-84
2022/06/20 07:45:02;;;;;;;32.87;5.87;;;15.60;99.90;;;;;;5006528;28;20479;-86
2022/06/20 07:48:02;;;;;;;10.13;3.73;;;15.60;99.90;;;;;;5012803;28;20415;-85
2022/06/20 07:50:36;;;;;;;6.33;2.40;;;15.60;99.90;;;;;;5013697;28;20432;-87
2022/06/20 07:53:06;;;;;;;10.50;3.20;;;15.70;99.90;;;;;;5012074;28;20412;-84
2022/06/20 07:55:34;;;;;;;4.27;2.10;;;15.70;99.90;;;;;;5012170;28;20872;-86
2022/06/20 07:58:06;;;;;;;4.77;3.10;;;15.70;99.90;;;;;;5011438;28;20444;-87
2022/06/20 08:00:39;;;;;;;8.47;2.30;;;15.80;99.90;;;;;;5010920;28;20503;-86
2022/06/20 08:03:11;;;;;;;6.83;3.03;;;15.80;99.90;;;;;;5010982;28;20427;-87
2022/06/20 08:05:42;;;;;;;5.30;2.40;;;16.00;99.90;;;;;;5013117;28;20419;-86
2022/06/20 08:08:20;;;;;;;9.30;2.50;;;16.10;99.90;;;;;;5014170;28;20832;-86
2022/06/20 08:10:52;;;;;;;8.97;2.40;;;16.30;99.90;;;;;;5009691;28;20424;-86
2022/06/20 08:13:45;;;;;;;8.47;2.53;;;16.50;99.90;;;;;;5016209;28;20408;-86
2022/06/20 08:16:16;;;;;;;4.90;2.57;;;16.80;99.90;;;;;;5006562;28;20456;-87
2022/06/20 08:18:42;;;;;;;7.90;2.37;;;17.00;99.90;;;;;;5016391;28;20522;-84
2022/06/20 08:21:19;;;;;;;7.43;3.47;;;17.30;99.90;;;;;;5032333;28;20911;-87
2022/06/20 08:23:48;;;;;;;8.30;2.53;;;17.40;99.90;;;;;;5033465;28;20441;-86
2022/06/20 08:26:23;;;;;;;7.30;3.63;;;17.50;99.90;;;;;;5030818;28;20474;-88
2022/06/20 08:29:01;;;;;;;6.00;2.40;;;17.50;99.90;;;;;;5031081;28;20467;-89
2022/06/20 08:31:37;;;;;;;12.80;3.60;;;17.60;99.90;;;;;;5031352;28;20412;-88
2022/06/20 08:34:17;;;;;;;5.97;3.10;;;17.70;99.90;;;;;;5031210;28;20558;-89
2022/06/20 08:36:55;;;;;;;5.07;3.13;;;17.70;99.90;;;;;;5015530;28;21002;-88
2022/06/20 08:39:31;;;;;;;6.20;3.70;;;18.10;99.90;;;;;;5014464;28;20440;-88
2022/06/20 08:42:20;;;;;;;6.00;2.90;;;18.50;99.90;;;;;;5015559;28;20416;-89
2022/06/20 08:45:29;;;;;;;7.50;3.17;;;18.90;99.90;;;;;;5030964;28;20451;-88
2022/06/20 08:48:09;;;;;;;13.17;4.47;;;18.80;99.90;;;;;;4938621;29;20445;-88
2022/06/20 08:50:56;;;;;;;7.50;3.53;;;18.70;99.90;;;;;;5026735;28;20574;-86
2022/06/20 08:53:54;;;;;;;10.40;3.57;;;18.60;99.90;;;;;;5030631;28;20423;-87
2022/06/20 08:56:57;;;;;;;6.30;3.10;;;18.70;99.90;;;;;;5030510;28;20420;-87
2022/06/20 08:59:37;;;;;;;7.73;3.47;;;18.70;99.90;;;;;;5030448;28;20435;-87
2022/06/20 09:02:27;;;;;;;6.30;3.67;;;18.60;99.90;;;;;;5030686;28;21014;-87
2022/06/20 09:05:11;;;;;;;9.50;4.47;;;18.60;99.90;;;;;;5030549;28;20416;-88
2022/06/20 09:07:55;;;;;;;9.73;5.03;;;18.60;99.90;;;;;;5029939;28;20443;-88
2022/06/20 09:10:45;;;;;;;10.23;5.47;;;18.70;99.90;;;;;;5015223;28;20412;-88
2022/06/20 09:13:27;;;;;;;11.70;6.47;;;18.70;99.90;;;;;;5030349;28;20425;-87
2022/06/20 09:16:02;;;;;;;12.97;7.13;;;18.90;99.90;;;;;;5029689;28;20814;-87
2022/06/20 09:18:55;;;;;;;12.13;5.83;;;20.00;99.90;;;;;;5030052;28;20435;-87
2022/06/20 09:21:49;;;;;;;7.80;5.40;;;21.50;99.90;;;;;;5030446;28;20469;-87
2022/06/20 09:24:29;;;;;;;8.17;5.30;;;21.90;99.90;;;;;;5030222;28;20427;-86
2022/06/20 09:27:14;;;;;;;11.17;6.77;;;21.80;99.90;;;;;;5029873;28;20530;-88
2022/06/20 09:30:08;;;;;;;15.67;7.23;;;21.70;99.90;;;;;;5014691;28;20439;-87
2022/06/20 09:32:46;;;;;;;16.70;8.20;;;21.70;99.90;;;;;;5013147;28;20798;-87
2022/06/20 09:35:51;;;;;;;13.10;8.33;;;21.80;99.90;;;;;;5030017;28;20466;-87
2022/06/20 09:38:36;;;;;;;12.03;7.17;;;21.40;99.90;;;;;;5013189;28;20443;-86
2022/06/20 09:41:06;;;;;;;12.27;7.77;;;22.70;99.90;;;;;;5029931;28;20519;-87
2022/06/20 09:43:46;;;;;;;8.97;7.60;;;24.80;99.90;;;;;;5014608;28;20555;-85
2022/06/20 09:46:37;;;;;;;9.70;7.20;;;26.30;99.90;;;;;;5029590;28;20419;-85
2022/06/20 09:49:34;;;;;;;10.27;7.93;;;26.40;99.90;;;;;;5014411;28;20915;-85
2022/06/20 09:52:29;;;;;;;11.13;7.90;;;25.60;99.90;;;;;;5014632;28;20540;-85
2022/06/20 09:55:13;;;;;;;10.27;8.13;;;25.30;99.90;;;;;;5029848;28;20498;-85
2022/06/20 09:58:07;;;;;;;12.27;8.87;;;24.60;99.90;;;;;;5014191;28;20486;-83
2022/06/20 10:00:55;;;;;;;10.30;7.97;;;24.10;99.90;;;;;;5030727;28;20424;-83
2022/06/20 10:03:43;;;;;;;8.50;7.33;;;23.60;99.90;;;;;;5014779;28;20431;-82
2022/06/20 10:06:25;;;;;;;9.73;7.50;;;23.30;99.90;;;;;;5029468;28;20507;-84
2022/06/20 10:08:57;;;;;;;10.67;7.40;;;22.90;99.90;;;;;;5030113;28;20814;-85
2022/06/20 10:11:35;;;;;;;17.63;6.13;;;22.50;99.90;;;;;;5030015;28;20478;-83
2022/06/20 10:14:28;;;;;;;12.17;6.00;;;22.10;99.90;;;;;;5030111;28;20475;-84
2022/06/20 10:17:15;;;;;;;8.27;5.90;;;21.70;99.90;;;;;;4988980;28;20428;-87
2022/06/20 10:20:10;;;;;;;9.20;5.27;;;21.30;99.90;;;;;;5029452;28;20427;-86
2022/06/20 10:22:39;;;;;;;7.47;4.80;;;21.00;99.90;;;;;;4996154;28;20451;-85
2022/06/20 10:25:16;;;;;;;6.80;4.57;;;20.90;99.90;;;;;;5014197;28;20412;-87
2022/06/20 10:28:32;;;;;;;7.63;5.40;;;20.90;99.90;;;;;;5013571;28;20459;-86
2022/06/20 10:31:08;;;;;;;7.57;6.13;;;20.50;99.90;;;;;;4953634;29;20444;-86
2022/06/20 10:33:44;;;;;;;6.67;4.83;;;20.30;99.90;;;;;;4937719;29;20785;-86
2022/06/20 10:36:55;;;;;;;8.40;5.47;;;20.10;99.90;;;;;;4987801;28;20506;-86
2022/06/20 10:39:29;;;;;;;5.97;3.20;;;19.80;99.90;;;;;;5029091;28;20802;-86
2022/06/20 10:42:05;;;;;;;7.63;2.93;;;20.00;99.90;;;;;;5013807;28;20787;-86
2022/06/20 10:45:08;;;;;;;3.90;2.50;;;20.10;99.90;;;;;;5013796;28;20485;-85
2022/06/20 10:47:55;;;;;;;5.43;2.20;;;20.10;99.90;;;;;;5028339;28;20431;-86
2022/06/20 10:50:53;;;;;;;5.33;2.37;;;20.10;99.90;;;;;;5028940;28;20439;-86
2022/06/20 10:53:38;;;;;;;3.90;2.03;;;20.90;99.90;;;;;;4980412;28;20428;-85
2022/06/20 10:56:12;;;;;;;3.27;1.93;;;23.30;99.90;;;;;;5028570;28;20420;-84
2022/06/20 10:59:03;;;;;;;4.87;2.43;;;24.40;99.90;;;;;;5029370;28;20443;-84
2022/06/20 11:01:34;;;;;;;4.13;2.00;;;24.30;99.90;;;;;;5028911;28;20420;-83
2022/06/20 11:04:15;;;;;;;3.17;1.90;;;24.00;99.90;;;;;;5030124;28;20416;-85
2022/06/20 11:07:13;;;;;;;3.77;2.20;;;23.70;99.90;;;;;;5030077;28;20474;-84
2022/06/20 11:09:46;;;;;;;4.70;2.30;;;23.40;99.90;;;;;;5031611;28;20440;-87
2022/06/20 11:12:49;;;;;;;3.63;1.90;;;23.10;99.90;;;;;;5028563;28;20515;-87
2022/06/20 11:15:18;;;;;;;2.80;1.60;;;23.20;99.90;;;;;;5028161;28;20467;-85
2022/06/20 11:18:24;;;;;;;5.00;1.80;;;24.10;99.90;;;;;;5012521;28;20424;-87
2022/06/20 11:21:10;;;;;;;3.73;1.90;;;23.90;99.90;;;;;;5004937;28;20431;-84
2022/06/20 11:23:47;;;;;;;5.37;2.37;;;23.50;99.90;;;;;;5031697;28;20474;-84
2022/06/20 11:26:41;;;;;;;3.97;1.67;;;23.50;99.90;;;;;;5029983;28;20408;-84
2022/06/20 11:29:29;;;;;;;4.73;1.87;;;23.40;99.90;;;;;;5013574;28;21041;-85
2022/06/20 11:32:14;;;;;;;2.60;1.73;;;23.10;99.90;;;;;;5030135;28;20415;-85
2022/06/20 11:35:29;;;;;;;4.33;1.60;;;22.90;99.90;;;;;;5028730;28;20470;-83
2022/06/20 11:38:20;;;;;;;4.37;2.00;;;22.90;99.90;;;;;;5011901;28;20443;-85
2022/06/20 11:41:05;;;;;;;2.33;1.70;;;22.60;99.90;;;;;;5029178;28;20958;-84
2022/06/20 11:43:48;;;;;;;5.97;2.20;;;22.50;99.90;;;;;;5027854;28;20839;-83
2022/06/20 11:46:35;;;;;;;2.77;1.77;;;22.60;99.90;;;;;;5027594;28;20507;-86
2022/06/20 11:49:29;;;;;;;4.83;2.13;;;22.50;99.90;;;;;;5027641;28;20439;-85
2022/06/20 11:52:08;;;;;;;4.37;2.00;;;22.50;99.90;;;;;;4999030;28;20796;-86
2022/06/20 11:54:40;;;;;;;4.40;2.30;;;23.10;99.90;;;;;;5012574;28;20447;-84
2022/06/20 11:57:30;;;;;;;4.03;2.10;;;23.30;99.90;;;;;;5011843;28;20412;-84
2022/06/20 12:00:14;;;;;;;2.97;1.93;;;23.60;99.90;;;;;;5027928;28;20431;-84
2022/06/20 12:02:58;;;;;;;6.23;2.03;;;23.80;97.70;;;;;;5012182;28;20847;-83
2022/06/20 12:05:37;;;;;;;6.80;2.20;;;23.80;98.40;;;;;;5012213;28;20780;-84
2022/06/20 12:08:29;;;;;;;3.93;2.20;;;23.90;99.90;;;;;;5012142;28;20474;-84
2022/06/20 12:11:16;;;;;;;3.43;2.10;;;23.80;97.30;;;;;;5027692;28;20470;-83
2022/06/20 12:13:41;;;;;;;4.20;2.37;;;23.60;96.90;;;;;;5027451;28;20466;-83
2022/06/20 12:16:19;;;;;;;4.73;1.73;;;23.80;97.70;;;;;;5017112;28;20959;-79
2022/06/20 12:24:26;;;;;;;3.73;2.10;;;23.70;99.40;;;;;;4997892;28;20456;-80
2022/06/20 12:26:53;;;;;;;3.43;1.80;;;23.90;98.20;;;;;;5007094;28;20421;-82
2022/06/20 12:29:22;;;;;;;3.07;1.80;;;24.10;95.80;;;;;;4994194;28;20461;-80
2022/06/20 12:31:54;;;;;;;4.47;1.97;;;24.10;94.00;;;;;;4994370;28;20420;-81
2022/06/20 12:34:29;;;;;;;2.70;1.70;;;24.00;96.20;;;;;;5008355;28;20520;-79
2022/06/20 12:37:10;;;;;;;4.37;1.90;;;24.00;95.50;;;;;;4992086;28;20483;-79
2022/06/20 12:39:58;;;;;;;3.47;1.90;;;23.90;91.90;;;;;;4991339;28;20490;-79
2022/06/20 12:42:42;;;;;;;3.50;2.00;;;24.00;92.90;;;;;;4991273;28;20428;-79
2022/06/20 12:45:39;;;;;;;4.17;2.20;;;24.00;91.10;;;;;;4991147;28;20435;-80
2022/06/20 12:48:27;;;;;;;5.70;2.23;;;24.20;92.90;;;;;;5002050;28;20467;-82
2022/06/20 12:51:22;;;;;;;4.90;1.80;;;24.10;96.30;;;;;;4992869;28;20424;-82
2022/06/20 12:54:02;;;;;;;4.23;2.10;;;24.40;95.60;;;;;;4995986;28;20487;-81
2022/06/20 12:56:43;;;;;;;3.80;2.10;;;24.70;92.00;;;;;;4997114;28;20423;-82
2022/06/20 12:59:30;;;;;;;5.70;2.17;;;24.90;93.10;;;;;;4999048;28;20851;-83
2022/06/20 13:02:09;;;;;;;3.30;1.70;;;25.30;94.80;;;;;;4996111;28;20431;-81
2022/06/20 13:04:58;;;;;;;4.70;2.00;;;25.40;88.10;;;;;;4995814;28;20421;-81
2022/06/20 13:07:53;;;;;;;3.40;1.80;;;25.00;83.80;;;;;;4995472;28;20843;-82
2022/06/20 13:10:31;;;;;;;3.47;1.80;;;25.00;79.20;;;;;;4985650;28;20770;-82
2022/06/20 13:13:22;;;;;;;6.00;1.90;;;25.10;83.80;;;;;;4994649;28;20428;-81
2022/06/20 13:16:03;;;;;;;4.10;2.03;;;25.40;81.00;;;;;;4993999;28;20865;-83
2022/06/20 13:18:50;;;;;;;4.03;2.20;;;26.00;83.30;;;;;;4994831;28;20538;-82
2022/06/20 13:21:42;;;;;;;4.50;2.13;;;26.30;75.60;;;;;;4994684;28;20811;-83
2022/06/20 13:24:22;;;;;;;4.53;2.53;;;26.10;74.10;;;;;;4996909;28;20408;-82
2022/06/20 13:26:48;;;;;;;3.47;1.90;;;25.90;75.80;;;;;;4994990;28;20515;-82
2022/06/20 13:29:40;;;;;;;3.63;1.90;;;25.70;77.40;;;;;;4994122;28;20539;-82
2022/06/20 13:32:18;;;;;;;3.00;1.90;;;25.50;79.30;;;;;;4995781;28;20185;-82
2022/06/20 13:35:15;;;;;;;4.23;2.53;;;25.10;82.90;;;;;;4994025;28;20483;-82
2022/06/20 13:38:01;;;;;;;4.60;1.93;;;25.10;81.40;;;;;;4993060;28;20877;-81
2022/06/20 13:40:53;;;;;;;3.40;2.00;;;25.20;82.60;;;;;;4993903;28;21015;-82
2022/06/20 13:43:25;;;;;;;5.10;2.40;;;25.10;82.40;;;;;;4993924;28;20511;-82
2022/06/20 13:46:23;;;;;;;5.30;1.90;;;25.00;81.50;;;;;;4994962;28;20420;-82
2022/06/20 13:49:22;;;;;;;3.83;2.13;;;25.70;82.20;;;;;;4954498;28;20496;-83
2022/06/20 13:51:58;;;;;;;3.50;2.20;;;26.00;72.40;;;;;;4993892;28;20421;-81
2022/06/20 13:54:33;;;;;;;3.80;2.03;;;26.10;76.30;;;;;;4994094;28;20472;-81